| time (UTC) | temp C | wind direction | speed KPH | gust KPH | rain 1hr cm | rain 24hr cm | rain mn cm | humidity % | barometer mb |
| 20260505130232 | 9 | 63 | 3.2 | 4.8 | 0.03 | 0.00 | 1.09 | 84 | 1012.7 |
| 20260505124102 | 8 | 64 | 0.0 | 4.8 | 0.05 | 0.00 | 1.09 | 85 | 1010.6 |
| 20260505123754 | 8 | 49 | 4.8 | 4.8 | 0.05 | 0.00 | 1.09 | 85 | 1010.3 |
| 20260505123002 | 8 | 31 | 3.2 | 6.4 | 0.08 | 0.00 | 1.09 | 85 | 1010.0 |
| 20260505122432 | 8 | 52 | 3.2 | 6.4 | 0.08 | 0.00 | 1.07 | 83 | 1009.9 |
| 20260505122417 | 8 | 59 | 3.2 | 6.4 | 0.08 | 0.00 | 1.07 | 83 | 1010.1 |
| 20260505121432 | 8 | 72 | 3.2 | 6.4 | 0.10 | 0.00 | 1.07 | 83 | 1010.1 |
| 20260505120932 | 8 | 67 | 1.6 | 3.2 | 0.10 | 0.00 | 1.07 | 84 | 1010.3 |
| 20260505120432 | 8 | 62 | 0.0 | 4.8 | 0.10 | 0.00 | 1.07 | 85 | 1010.0 |
| 20260505115932 | 8 | 54 | 3.2 | 6.4 | 0.10 | 0.00 | 1.07 | 84 | 1009.9 |
| 20260505115432 | 8 | 73 | 3.2 | 4.8 | 0.10 | 0.00 | 1.04 | 86 | 1009.8 |
| 20260505115153 | 8 | 18 | 4.8 | 4.8 | 0.10 | 0.00 | 1.04 | 85 | 1009.9 |
| 20260505114919 | 8 | 72 | 3.2 | 4.8 | 0.08 | 0.00 | 1.04 | 85 | 1009.5 |
| 20260505113932 | 8 | 78 | 3.2 | 4.8 | 0.08 | 0.00 | 1.04 | 84 | 1009.7 |
| 20260505113432 | 8 | 353 | 1.6 | 4.8 | 0.08 | 0.00 | 1.02 | 83 | 1009.7 |
| 20260505112902 | 9 | 46 | 4.8 | 6.4 | 0.08 | 0.00 | 1.02 | 80 | 1009.6 |
| 20260505112332 | 9 | 60 | 3.2 | 6.4 | 0.05 | 0.00 | 0.99 | 77 | 1009.7 |
| 20260505111832 | 10 | 38 | 8.0 | 8.0 | 0.05 | 0.00 | 0.99 | 75 | 1009.6 |
| 20260505111332 | 10 | 2 | 6.4 | 8.0 | 0.00 | 0.00 | 0.97 | 74 | 1009.2 |
| 20260505110832 | 10 | 277 | 3.2 | 9.7 | 0.00 | 0.00 | 0.94 | 74 | 1009.5 |
| 20260505110332 | 10 | 76 | 4.8 | 9.7 | 0.00 | 0.00 | 0.94 | 74 | 1009.5 |
| 20260505102132 | 9 | 56 | 8.0 | 9.7 | 0.00 | 0.00 | 0.94 | 79 | 1009.3 |
| 20260505101632 | 9 | 338 | 3.2 | 9.7 | 0.00 | 0.00 | 0.94 | 81 | 1009.0 |
| 20260505101132 | 9 | 39 | 3.2 | 6.4 | 0.00 | 0.00 | 0.94 | 83 | 1009.0 |
| 20260505100632 | 9 | 358 | 3.2 | 11.3 | 0.00 | 0.00 | 0.94 | 82 | 1009.3 |
| 20260505100132 | 9 | 356 | 4.8 | 9.7 | 0.00 | 0.00 | 0.94 | 83 | 1009.4 |
| 20260505095632 | 9 | 53 | 3.2 | 8.0 | 0.00 | 0.00 | 0.94 | 83 | 1009.5 |
| 20260505095132 | 9 | 28 | 3.2 | 4.8 | 0.00 | 0.00 | 0.94 | 83 | 1009.6 |
| 20260505094852 | 9 | 92 | 3.2 | 4.8 | 0.00 | 0.00 | 0.94 | 83 | 1009.6 |
| 20260505094353 | 9 | 75 | 1.6 | 4.8 | 0.00 | 0.00 | 0.94 | 81 | 1009.4 |
| 20260505093632 | 9 | 73 | 6.4 | 9.7 | 0.00 | 0.00 | 0.94 | 81 | 1009.3 |
| 20260505093351 | 9 | 72 | 4.8 | 6.4 | 0.00 | 0.00 | 0.94 | 80 | 1009.3 |
| 20260505092602 | 9 | 32 | 3.2 | 9.7 | 0.00 | 0.00 | 0.94 | 81 | 1008.9 |
| 20260505092324 | 9 | 39 | 6.4 | 8.0 | 0.00 | 0.00 | 0.94 | 81 | 1008.5 |
| 20260505091602 | 9 | 58 | 3.2 | 8.0 | 0.00 | 0.00 | 0.94 | 81 | 1008.8 |
| 20260505091102 | 9 | 21 | 4.8 | 8.0 | 0.00 | 0.00 | 0.94 | 81 | 1008.6 |
| 20260505090823 | 9 | 16 | 4.8 | 9.7 | 0.05 | 0.00 | 0.94 | 81 | 1008.2 |
| 20260505085602 | 9 | 17 | 6.4 | 12.9 | 0.20 | 0.00 | 0.94 | 80 | 1007.5 |
| 20260505085102 | 9 | 42 | 3.2 | 9.7 | 0.23 | 0.00 | 0.94 | 82 | 1007.1 |
| 20260505084754 | 9 | 326 | 4.8 | 12.9 | 0.30 | 0.00 | 0.94 | 81 | 1007.0 |
| 20260505084032 | 9 | 86 | 11.3 | 22.5 | 0.38 | 0.00 | 0.94 | 81 | 1007.3 |
| 20260505083752 | 8 | 17 | 4.8 | 8.0 | 0.46 | 0.00 | 0.94 | 86 | 1007.1 |
| 20260505083002 | 8 | 359 | 4.8 | 12.9 | 0.51 | 0.00 | 0.94 | 87 | 1007.0 |
| 20260505082432 | 8 | 10 | 4.8 | 6.4 | 0.64 | 0.00 | 0.94 | 88 | 1006.7 |
| 20260505081932 | 9 | 61 | 4.8 | 8.0 | 0.66 | 0.00 | 0.94 | 88 | 1006.8 |
| 20260505081432 | 9 | 162 | 1.6 | 9.7 | 0.71 | 0.00 | 0.94 | 88 | 1006.9 |
| 20260505080932 | 9 | 70 | 6.4 | 12.9 | 0.71 | 0.00 | 0.89 | 88 | 1005.2 |
| 20260505080624 | 9 | 27 | 6.4 | 9.7 | 0.64 | 0.00 | 0.81 | 86 | 1007.0 |
| 20260505075902 | 10 | 322 | 3.2 | 9.7 | 0.58 | 0.00 | 0.76 | 85 | 1007.4 |
| 20260505075402 | 10 | 31 | 1.6 | 8.0 | 0.56 | 0.00 | 0.71 | 84 | 1008.0 |
| 20260505074909 | 10 | 76 | 4.8 | 6.4 | 0.48 | 0.00 | 0.64 | 84 | 1008.4 |
| 20260505074402 | 10 | 344 | 3.2 | 6.4 | 0.43 | 0.00 | 0.56 | 81 | 1008.6 |
| 20260505073902 | 10 | 28 | 4.8 | 8.0 | 0.38 | 0.00 | 0.48 | 83 | 1008.7 |
| 20260505073402 | 11 | 242 | 3.2 | 4.8 | 0.33 | 0.00 | 0.46 | 79 | 1008.8 |
| 20260505072832 | 11 | 45 | 8.0 | 9.7 | 0.25 | 0.00 | 0.38 | 77 | 1009.1 |
| 20260505072302 | 12 | 44 | 3.2 | 6.4 | 0.20 | 0.00 | 0.30 | 75 | 1008.9 |
| 20260505071954 | 12 | 321 | 1.6 | 6.4 | 0.15 | 0.00 | 0.25 | 76 | 1009.0 |
| 20260505071232 | 12 | 227 | 0.0 | 9.7 | 0.13 | 0.00 | 0.23 | 74 | 1008.6 |
| 20260505070732 | 12 | 348 | 1.6 | 4.8 | 0.10 | 0.00 | 0.20 | 70 | 1007.8 |
| 20260505070232 | 13 | 78 | 3.2 | 6.4 | 0.08 | 0.00 | 0.18 | 69 | 1007.9 |
| 20260505065732 | 13 | 89 | 0.0 | 6.4 | 0.08 | 0.00 | 0.15 | 65 | 1007.7 |
| 20260505065232 | 13 | 314 | 3.2 | 6.4 | 0.05 | 0.00 | 0.15 | 61 | 1007.3 |
| 20260505064732 | 14 | 30 | 3.2 | 6.4 | 0.05 | 0.00 | 0.13 | 57 | 1006.9 |
| 20260505064232 | 15 | 2 | 8.0 | 9.7 | 0.05 | 0.00 | 0.13 | 55 | 1006.9 |
| 20260505063954 | 15 | 20 | 4.8 | 9.7 | 0.03 | 0.00 | 0.10 | 53 | 1006.6 |
| 20260505063451 | 15 | 33 | 4.8 | 8.0 | 0.03 | 0.00 | 0.10 | 55 | 1006.5 |
| 20260505062702 | 15 | 54 | 8.0 | 12.9 | 0.05 | 0.00 | 0.10 | 56 | 1005.8 |
| 20260505062202 | 15 | 26 | 6.4 | 12.9 | 0.03 | 0.00 | 0.10 | 59 | 1006.0 |
| 20260505061702 | 15 | 8 | 3.2 | 11.3 | 0.03 | 0.00 | 0.10 | 59 | 1006.4 |
| 20260505061648 | 15 | 297 | 3.2 | 8.0 | 0.05 | 0.00 | 0.10 | 63 | 1006.0 |
| 20260505060702 | 15 | 39 | 0.0 | 4.8 | 0.05 | 0.00 | 0.10 | 67 | 1005.7 |
| 20260505060202 | 15 | 30 | 1.6 | 6.4 | 0.05 | 0.00 | 0.10 | 71 | 1005.3 |
| 20260505055921 | 15 | 3 | 1.6 | 4.8 | 0.10 | 0.00 | 0.10 | 71 | 1004.9 |
| 20260505055202 | 15 | 39 | 0.0 | 4.8 | 0.10 | 0.00 | 0.10 | 70 | 1004.7 |
| 20260505054702 | 15 | 21 | 1.6 | 4.8 | 0.10 | 0.00 | 0.10 | 70 | 1004.8 |
| 20260505054616 | 15 | 30 | 1.6 | 4.8 | 0.10 | 0.00 | 0.08 | 69 | 1004.6 |
| 20260505053632 | 15 | 51 | 1.6 | 6.4 | 0.10 | 0.00 | 0.08 | 69 | 1004.7 |
| 20260505053132 | 15 | 59 | 3.2 | 6.4 | 0.10 | 0.00 | 0.08 | 70 | 1004.7 |
| 20260505052602 | 15 | 29 | 3.2 | 6.4 | 0.08 | 0.00 | 0.08 | 75 | 1004.7 |
| 20260505052323 | 15 | 13 | 1.6 | 8.0 | 0.08 | 0.00 | 0.08 | 76 | 1004.4 |
| 20260505051751 | 15 | 326 | 3.2 | 8.0 | 0.08 | 0.00 | 0.05 | 75 | 1004.7 |
| 20260505051252 | 16 | 58 | 3.2 | 6.4 | 0.05 | 0.00 | 0.05 | 74 | 1004.0 |
| 20260505050753 | 17 | 29 | 4.8 | 9.7 | 0.05 | 0.00 | 0.05 | 68 | 1004.5 |
| 20260505050254 | 19 | 358 | 4.8 | 9.7 | 0.00 | 0.00 | 0.00 | 54 | 1003.9 |
| 20260505041402 | 22 | 269 | 0.0 | 6.4 | 0.00 | 0.00 | 0.00 | 66 | 1003.2 |
| 20260505040902 | 22 | 316 | 3.2 | 3.2 | 0.00 | 0.00 | 0.00 | 67 | 1002.9 |
| 20260505040402 | 22 | 280 | 3.2 | 3.2 | 0.00 | 0.00 | 0.00 | 67 | 1002.6 |
| 20260505035902 | 22 | 297 | 1.6 | 3.2 | 0.00 | 0.00 | 0.00 | 66 | 1002.8 |
| 20260505035624 | 22 | 228 | 0.0 | 3.2 | 0.00 | 0.00 | 0.00 | 66 | 1002.7 |
| 20260505034832 | 22 | 287 | 0.0 | 4.8 | 0.00 | 0.00 | 0.00 | 66 | 1002.7 |
| 20260505034332 | 22 | 236 | 1.6 | 3.2 | 0.00 | 0.00 | 0.00 | 66 | 1002.8 |
| 20260505033832 | 22 | 266 | 4.8 | 6.4 | 0.00 | 0.00 | 0.00 | 66 | 1002.7 |
| 20260505033332 | 22 | 283 | 0.0 | 6.4 | 0.00 | 0.00 | 0.00 | 65 | 1002.7 |
| 20260505032832 | 22 | 306 | 0.0 | 3.2 | 0.00 | 0.00 | 0.00 | 65 | 1002.9 |
| 20260505032304 | 22 | 305 | 0.0 | 3.2 | 0.00 | 0.00 | 0.00 | 64 | 1002.8 |
| 20260505031732 | 22 | 214 | 4.8 | 6.4 | 0.00 | 0.00 | 0.00 | 64 | 1002.7 |
| 20260505031232 | 22 | 293 | 0.0 | 3.2 | 0.00 | 0.00 | 0.00 | 63 | 1002.7 |
| 20260505030732 | 22 | 235 | 0.0 | 0.0 | 0.00 | 0.00 | 0.00 | 63 | 1002.4 |
| 20260505030232 | 22 | 269 | 0.0 | 3.2 | 0.00 | 0.00 | 0.00 | 63 | 1002.5 |
| 20260505025924 | 21 | 274 | 1.6 | 3.2 | 0.00 | 0.00 | 0.00 | 64 | 1002.6 |
| 20260505025202 | 20 | 266 | 3.2 | 4.8 | 0.00 | 0.00 | 0.00 | 66 | 1002.2 |
| 20260505024702 | 20 | 50 | 0.0 | 0.0 | 0.00 | 0.00 | 0.00 | 65 | 1002.5 |
| 20260505024202 | 20 | 55 | 0.0 | 0.0 | 0.00 | 0.00 | 0.00 | 65 | 1002.2 |
| 20260505023632 | 20 | 37 | 0.0 | 1.6 | 0.00 | 0.00 | 0.00 | 64 | 1002.1 |
| 20260505023132 | 20 | 22 | 0.0 | 0.0 | 0.00 | 0.00 | 0.00 | 64 | 1002.2 |
| 20260505022602 | 20 | 50 | 0.0 | 0.0 | 0.00 | 0.00 | 0.00 | 63 | 1002.2 |
| 20260505022102 | 20 | 44 | 0.0 | 0.0 | 0.00 | 0.00 | 0.00 | 63 | 1002.0 |
| 20260505021602 | 21 | 13 | 0.0 | 1.6 | 0.00 | 0.00 | 0.00 | 63 | 1001.7 |
| 20260505021102 | 21 | 55 | 0.0 | 1.6 | 0.00 | 0.00 | 0.00 | 62 | 1001.9 |
| 20260505021017 | 21 | 50 | 0.0 | 0.0 | 0.00 | 0.00 | 0.00 | 61 | 1001.7 |
| 20260505020032 | 21 | 44 | 0.0 | 0.0 | 0.00 | 0.00 | 0.00 | 61 | 1001.7 |
| 20260505015532 | 21 | 32 | 0.0 | 0.0 | 0.00 | 0.00 | 0.00 | 60 | 1001.7 |
| 20260505015032 | 22 | 242 | 0.0 | 0.0 | 0.00 | 0.00 | 0.00 | 59 | 1001.8 |
| 20260505014502 | 22 | 242 | 0.0 | 0.0 | 0.00 | 0.00 | 0.00 | 58 | 1001.5 |
| 20260505014224 | 22 | 242 | 0.0 | 0.0 | 0.00 | 0.00 | 0.00 | 57 | 1001.6 |
| 20260505013502 | 22 | 242 | 0.0 | 0.0 | 0.00 | 0.00 | 0.00 | 57 | 1001.3 |
| 20260505012932 | 22 | 242 | 0.0 | 0.0 | 0.00 | 0.00 | 0.00 | 56 | 1001.3 |
| 20260505012432 | 22 | 224 | 0.0 | 0.0 | 0.00 | 0.00 | 0.00 | 56 | 1001.4 |
| 20260505011932 | 23 | 24 | 0.0 | 0.0 | 0.00 | 0.00 | 0.00 | 56 | 1001.5 |
| 20260505011402 | 23 | 315 | 0.0 | 0.0 | 0.00 | 0.00 | 0.00 | 54 | 1001.4 |
| 20260505010902 | 23 | 315 | 0.0 | 0.0 | 0.00 | 0.00 | 0.00 | 53 | 1001.3 |
| 20260505010621 | 23 | 333 | 0.0 | 0.0 | 0.00 | 0.00 | 0.00 | 53 | 1001.2 |
| 20260505005902 | 24 | 25 | 0.0 | 0.0 | 0.00 | 0.00 | 0.00 | 52 | 1001.2 |
| 20260505005623 | 25 | 315 | 0.0 | 0.0 | 0.00 | 0.00 | 0.00 | 50 | 1001.2 |
| 20260505004902 | 25 | 315 | 0.0 | 0.0 | 0.00 | 0.00 | 0.00 | 49 | 1001.0 |
| 20260505004846 | 25 | 315 | 0.0 | 0.0 | 0.00 | 0.00 | 0.00 | 48 | 1001.0 |
| 20260505003902 | 25 | 315 | 0.0 | 0.0 | 0.00 | 0.00 | 0.00 | 47 | 1000.8 |
| 20260505003332 | 26 | 242 | 0.0 | 1.6 | 0.00 | 0.00 | 0.00 | 46 | 1001.0 |
| 20260505002832 | 26 | 172 | 0.0 | 1.6 | 0.00 | 0.00 | 0.00 | 46 | 1000.8 |
| 20260505002304 | 26 | 309 | 0.0 | 1.6 | 0.00 | 0.00 | 0.00 | 46 | 1000.7 |
| 20260505002024 | 26 | 310 | 0.0 | 1.6 | 0.00 | 0.00 | 0.00 | 46 | 1000.8 |
| 20260505001232 | 26 | 269 | 0.0 | 3.2 | 0.00 | 0.00 | 0.00 | 45 | 1000.7 |
| 20260505000732 | 26 | 251 | 1.6 | 1.6 | 0.00 | 0.00 | 0.00 | 45 | 1001.0 |
| 20260505000233 | 26 | 290 | 0.0 | 3.2 | 0.00 | 0.00 | 0.00 | 45 | 1001.0 |
| 20260504235923 | 26 | 224 | 1.6 | 4.8 | 0.00 | 0.00 | 0.00 | 44 | 1001.0 |
| 20260504235202 | 26 | 333 | 0.0 | 1.6 | 0.00 | 0.00 | 0.00 | 44 | 1001.0 |
| 20260504234921 | 26 | 240 | 0.0 | 3.2 | 0.00 | 0.00 | 0.00 | 44 | 1001.0 |
| 20260504234202 | 26 | 186 | 0.0 | 3.2 | 0.00 | 0.00 | 0.00 | 43 | 1000.8 |
| 20260504233632 | 26 | 252 | 0.0 | 6.4 | 0.00 | 0.00 | 0.00 | 43 | 1001.1 |
| 20260504233132 | 26 | 288 | 0.0 | 6.4 | 0.00 | 0.00 | 0.00 | 43 | 1001.1 |
| 20260504232602 | 26 | 295 | 0.0 | 4.8 | 0.00 | 0.00 | 0.00 | 42 | 1001.2 |
| 20260504232102 | 27 | 279 | 1.6 | 3.2 | 0.00 | 0.00 | 0.00 | 42 | 1000.9 |
| 20260504231602 | 27 | 230 | 3.2 | 6.4 | 0.00 | 0.00 | 0.00 | 41 | 1000.9 |
| 20260504231102 | 27 | 268 | 1.6 | 4.8 | 0.00 | 0.00 | 0.00 | 42 | 1001.1 |
| 20260504230532 | 27 | 269 | 3.2 | 4.8 | 0.00 | 0.00 | 0.00 | 41 | 1001.2 |
| 20260504230251 | 27 | 267 | 0.0 | 4.8 | 0.00 | 0.00 | 0.00 | 41 | 1001.2 |
| 20260504225532 | 27 | 304 | 3.2 | 3.2 | 0.00 | 0.00 | 0.00 | 41 | 1001.2 |
| 20260504225002 | 27 | 235 | 3.2 | 6.4 | 0.00 | 0.00 | 0.00 | 40 | 1001.1 |
| 20260504224721 | 27 | 316 | 0.0 | 4.8 | 0.00 | 0.00 | 0.00 | 40 | 1001.1 |
| 20260504224002 | 27 | 319 | 0.0 | 6.4 | 0.00 | 0.00 | 0.00 | 41 | 1001.3 |
| 20260504223502 | 27 | 250 | 0.0 | 4.8 | 0.00 | 0.00 | 0.00 | 40 | 1001.1 |
| 20260504222932 | 27 | 262 | 1.6 | 3.2 | 0.00 | 0.00 | 0.00 | 40 | 1001.1 |
| 20260504222402 | 27 | 313 | 0.0 | 3.2 | 0.00 | 0.00 | 0.00 | 41 | 1001.2 |
| 20260504221902 | 27 | 231 | 6.4 | 8.0 | 0.00 | 0.00 | 0.00 | 39 | 1001.2 |
| 20260504221332 | 27 | 286 | 4.8 | 4.8 | 0.00 | 0.00 | 0.00 | 41 | 1001.4 |
| 20260504220802 | 27 | 249 | 3.2 | 6.4 | 0.00 | 0.00 | 0.00 | 40 | 1001.4 |
| 20260504220522 | 27 | 276 | 3.2 | 4.8 | 0.00 | 0.00 | 0.00 | 41 | 1001.2 |
| 20260504215802 | 27 | 210 | 3.2 | 9.7 | 0.00 | 0.00 | 0.00 | 41 | 1001.4 |
| 20260504215304 | 27 | 258 | 1.6 | 8.0 | 0.00 | 0.00 | 0.00 | 43 | 1001.1 |
| 20260504214802 | 27 | 265 | 3.2 | 9.7 | 0.00 | 0.00 | 0.00 | 43 | 1001.7 |
| 20260504214748 | 27 | 250 | 3.2 | 3.2 | 0.00 | 0.00 | 0.00 | 43 | 1001.5 |
| 20260504213951 | 27 | 283 | 1.6 | 6.4 | 0.00 | 0.00 | 0.00 | 42 | 1001.8 |
| 20260504213232 | 27 | 249 | 6.4 | 6.4 | 0.00 | 0.00 | 0.00 | 42 | 1001.7 |
| 20260504212702 | 27 | 258 | 3.2 | 11.3 | 0.00 | 0.00 | 0.00 | 42 | 1001.9 |
| 20260504212202 | 27 | 252 | 1.6 | 8.0 | 0.00 | 0.00 | 0.00 | 42 | 1001.9 |
| 20260504211702 | 27 | 293 | 8.0 | 9.7 | 0.00 | 0.00 | 0.00 | 41 | 1001.8 |
| 20260504211202 | 27 | 261 | 3.2 | 4.8 | 0.00 | 0.00 | 0.00 | 42 | 1001.6 |
| 20260504210702 | 28 | 254 | 1.6 | 3.2 | 0.00 | 0.00 | 0.00 | 41 | 1001.7 |
| 20260504210202 | 28 | 223 | 0.0 | 8.0 | 0.00 | 0.00 | 0.00 | 41 | 1001.9 |
| 20260504205702 | 28 | 242 | 3.2 | 8.0 | 0.00 | 0.00 | 0.00 | 40 | 1001.9 |
| 20260504205132 | 28 | 276 | 1.6 | 4.8 | 0.00 | 0.00 | 0.00 | 42 | 1002.0 |
| 20260504204632 | 28 | 258 | 3.2 | 8.0 | 0.00 | 0.00 | 0.00 | 40 | 1001.8 |
| 20260504204102 | 28 | 276 | 1.6 | 8.0 | 0.00 | 0.00 | 0.00 | 39 | 1001.9 |
| 20260504203602 | 28 | 249 | 8.0 | 8.0 | 0.00 | 0.00 | 0.00 | 38 | 1001.9 |
| 20260504203321 | 28 | 263 | 3.2 | 6.4 | 0.00 | 0.00 | 0.00 | 39 | 1002.3 |
| 20260504202532 | 28 | 240 | 4.8 | 6.4 | 0.00 | 0.00 | 0.00 | 40 | 1002.2 |
| 20260504202032 | 28 | 285 | 4.8 | 8.0 | 0.00 | 0.00 | 0.00 | 39 | 1002.0 |
| 20260504201532 | 29 | 252 | 4.8 | 8.0 | 0.00 | 0.00 | 0.00 | 39 | 1002.2 |
| 20260504201032 | 28 | 283 | 3.2 | 6.4 | 0.00 | 0.00 | 0.00 | 41 | 1001.9 |
| 20260504201018 | 28 | 260 | 3.2 | 8.0 | 0.00 | 0.00 | 0.00 | 41 | 1002.3 |
| 20260504200032 | 28 | 237 | 6.4 | 6.4 | 0.00 | 0.00 | 0.00 | 41 | 1002.1 |
| 20260504195502 | 28 | 252 | 4.8 | 6.4 | 0.00 | 0.00 | 0.00 | 41 | 1002.2 |
| 20260504194932 | 28 | 262 | 3.2 | 9.7 | 0.00 | 0.00 | 0.00 | 38 | 1002.0 |
| 20260504194432 | 28 | 271 | 1.6 | 4.8 | 0.00 | 0.00 | 0.00 | 40 | 1002.0 |
| 20260504193902 | 28 | 225 | 6.4 | 6.4 | 0.00 | 0.00 | 0.00 | 39 | 1002.2 |
| 20260504193332 | 28 | 264 | 3.2 | 4.8 | 0.00 | 0.00 | 0.00 | 38 | 1002.4 |
| 20260504192832 | 28 | 286 | 6.4 | 6.4 | 0.00 | 0.00 | 0.00 | 40 | 1002.1 |
| 20260504192304 | 27 | 179 | 3.2 | 6.4 | 0.00 | 0.00 | 0.00 | 38 | 1002.5 |
| 20260504191803 | 27 | 295 | 0.0 | 6.4 | 0.00 | 0.00 | 0.00 | 41 | 1002.4 |
| 20260504191303 | 27 | 287 | 4.8 | 8.0 | 0.00 | 0.00 | 0.00 | 41 | 1002.4 |
| 20260504190803 | 27 | 230 | 4.8 | 8.0 | 0.00 | 0.00 | 0.00 | 41 | 1002.2 |
| 20260504190303 | 27 | 272 | 3.2 | 8.0 | 0.00 | 0.00 | 0.00 | 41 | 1002.4 |
| 20260504185803 | 27 | 297 | 0.0 | 8.0 | 0.00 | 0.00 | 0.00 | 43 | 1002.6 |
| 20260504185455 | 27 | 277 | 0.0 | 8.0 | 0.00 | 0.00 | 0.00 | 40 | 1002.7 |
| 20260504184232 | 26 | 233 | 0.0 | 9.7 | 0.00 | 0.00 | 0.00 | 42 | 1002.5 |
| 20260504184219 | 26 | 243 | 6.4 | 6.4 | 0.00 | 0.00 | 0.00 | 42 | 1002.6 |
| 20260504183202 | 26 | 277 | 4.8 | 8.0 | 0.00 | 0.00 | 0.00 | 40 | 1002.7 |
| 20260504182702 | 26 | 248 | 3.2 | 9.7 | 0.00 | 0.00 | 0.00 | 41 | 1002.9 |
| 20260504182132 | 26 | 216 | 0.0 | 4.8 | 0.00 | 0.00 | 0.00 | 45 | 1002.7 |
| 20260504181632 | 26 | 232 | 6.4 | 8.0 | 0.00 | 0.00 | 0.00 | 42 | 1003.2 |
| 20260504181132 | 26 | 257 | 4.8 | 6.4 | 0.00 | 0.00 | 0.00 | 43 | 1002.9 |
| 20260504180602 | 26 | 231 | 3.2 | 6.4 | 0.00 | 0.00 | 0.00 | 43 | 1003.0 |
| 20260504175750 | 26 | 254 | 3.2 | 4.8 | 0.00 | 0.00 | 0.00 | 43 | 1003.0 |
| 20260504175032 | 25 | 249 | 3.2 | 6.4 | 0.00 | 0.00 | 0.00 | 44 | 1003.1 |
| 20260504174502 | 26 | 249 | 4.8 | 8.0 | 0.00 | 0.00 | 0.00 | 42 | 1003.2 |
| 20260504174002 | 26 | 213 | 3.2 | 6.4 | 0.00 | 0.00 | 0.00 | 42 | 1003.1 |
| 20260504173722 | 25 | 286 | 1.6 | 8.0 | 0.00 | 0.00 | 0.00 | 42 | 1003.2 |
| 20260504173002 | 25 | 188 | 4.8 | 9.7 | 0.00 | 0.00 | 0.00 | 48 | 1003.4 |
| 20260504172432 | 25 | 274 | 3.2 | 8.0 | 0.00 | 0.00 | 0.00 | 43 | 1003.4 |
| 20260504171932 | 25 | 267 | 1.6 | 12.9 | 0.00 | 0.00 | 0.00 | 44 | 1003.5 |
| 20260504171432 | 25 | 257 | 3.2 | 6.4 | 0.00 | 0.00 | 0.00 | 43 | 1003.6 |
| 20260504160202 | 23 | 257 | 4.8 | 6.4 | 0.00 | 0.00 | 0.00 | 44 | 1003.4 |
| 20260504151032 | 22 | 242 | 4.8 | 11.3 | 0.00 | 0.00 | 0.00 | 47 | 1003.8 |
| 20260504150532 | 22 | 264 | 8.0 | 9.7 | 0.00 | 0.00 | 0.00 | 48 | 1003.9 |
| 20260504141232 | 19 | 222 | 4.8 | 6.4 | 0.00 | 0.00 | 0.00 | 54 | 1004.0 |
| 20260504140732 | 19 | 146 | 3.2 | 6.4 | 0.00 | 0.00 | 0.00 | 54 | 1004.2 |
| 20260504140232 | 19 | 327 | 0.0 | 3.2 | 0.00 | 0.00 | 0.00 | 54 | 1004.1 |